sensor_id;sensor_type;location;lat;lon;timestamp;P1;durP1;ratioP1;P2;durP2;ratioP2
77449;SDS011;66536;53.150;18.172;2024-02-26T00:01:58;123.80;;;44.20;;
77449;SDS011;66536;53.150;18.172;2024-02-26T00:04:26;139.80;;;47.90;;
77449;SDS011;66536;53.150;18.172;2024-02-26T00:06:52;137.40;;;50.60;;
77449;SDS011;66536;53.150;18.172;2024-02-26T00:09:20;168.10;;;57.30;;
77449;SDS011;66536;53.150;18.172;2024-02-26T00:11:53;130.00;;;50.30;;
77449;SDS011;66536;53.150;18.172;2024-02-26T00:14:22;133.60;;;49.50;;
77449;SDS011;66536;53.150;18.172;2024-02-26T00:16:51;140.60;;;49.40;;
77449;SDS011;66536;53.150;18.172;2024-02-26T00:19:30;148.90;;;53.80;;
77449;SDS011;66536;53.150;18.172;2024-02-26T00:22:03;158.00;;;57.10;;
77449;SDS011;66536;53.150;18.172;2024-02-26T00:24:43;162.90;;;58.10;;
77449;SDS011;66536;53.150;18.172;2024-02-26T00:27:16;166.50;;;57.40;;
77449;SDS011;66536;53.150;18.172;2024-02-26T00:29:51;191.10;;;63.90;;
77449;SDS011;66536;53.150;18.172;2024-02-26T00:32:25;184.40;;;63.90;;
77449;SDS011;66536;53.150;18.172;2024-02-26T00:34:54;198.60;;;63.00;;
77449;SDS011;66536;53.150;18.172;2024-02-26T00:37:22;162.10;;;50.10;;
77449;SDS011;66536;53.150;18.172;2024-02-26T00:39:50;131.60;;;49.60;;
77449;SDS011;66536;53.150;18.172;2024-02-26T00:42:20;153.80;;;51.80;;
77449;SDS011;66536;53.150;18.172;2024-02-26T00:44:46;172.40;;;56.50;;
77449;SDS011;66536;53.150;18.172;2024-02-26T00:47:17;167.20;;;53.50;;
77449;SDS011;66536;53.150;18.172;2024-02-26T00:49:48;147.50;;;48.10;;
77449;SDS011;66536;53.150;18.172;2024-02-26T00:52:15;133.90;;;45.50;;
77449;SDS011;66536;53.150;18.172;2024-02-26T00:54:44;139.60;;;46.00;;
77449;SDS011;66536;53.150;18.172;2024-02-26T00:57:10;122.90;;;43.90;;
77449;SDS011;66536;53.150;18.172;2024-02-26T00:59:37;120.70;;;42.70;;
77449;SDS011;66536;53.150;18.172;2024-02-26T01:02:04;126.60;;;43.70;;
77449;SDS011;66536;53.150;18.172;2024-02-26T01:04:34;138.30;;;47.30;;
77449;SDS011;66536;53.150;18.172;2024-02-26T01:07:01;140.80;;;46.60;;
77449;SDS011;66536;53.150;18.172;2024-02-26T01:09:29;120.60;;;40.40;;
77449;SDS011;66536;53.150;18.172;2024-02-26T01:12:01;97.70;;;34.10;;
77449;SDS011;66536;53.150;18.172;2024-02-26T01:14:31;96.10;;;34.50;;
77449;SDS011;66536;53.150;18.172;2024-02-26T01:17:02;86.10;;;31.30;;
77449;SDS011;66536;53.150;18.172;2024-02-26T01:19:30;82.70;;;30.60;;
77449;SDS011;66536;53.150;18.172;2024-02-26T01:21:58;99.00;;;35.30;;
77449;SDS011;66536;53.150;18.172;2024-02-26T01:24:27;85.00;;;29.60;;
77449;SDS011;66536;53.150;18.172;2024-02-26T01:26:56;98.10;;;30.90;;
77449;SDS011;66536;53.150;18.172;2024-02-26T01:29:25;91.70;;;31.90;;
77449;SDS011;66536;53.150;18.172;2024-02-26T01:31:54;94.00;;;33.90;;
77449;SDS011;66536;53.150;18.172;2024-02-26T01:34:21;88.60;;;32.80;;
77449;SDS011;66536;53.150;18.172;2024-02-26T01:36:50;80.80;;;32.60;;
77449;SDS011;66536;53.150;18.172;2024-02-26T01:39:16;81.60;;;30.80;;
77449;SDS011;66536;53.150;18.172;2024-02-26T01:41:49;82.20;;;32.30;;
77449;SDS011;66536;53.150;18.172;2024-02-26T01:44:18;83.70;;;31.80;;
77449;SDS011;66536;53.150;18.172;2024-02-26T01:46:46;76.80;;;32.00;;
77449;SDS011;66536;53.150;18.172;2024-02-26T01:49:14;82.70;;;31.00;;
77449;SDS011;66536;53.150;18.172;2024-02-26T01:51:43;81.60;;;31.60;;
77449;SDS011;66536;53.150;18.172;2024-02-26T01:54:12;85.20;;;33.10;;
77449;SDS011;66536;53.150;18.172;2024-02-26T01:56:41;77.40;;;34.40;;
77449;SDS011;66536;53.150;18.172;2024-02-26T01:59:07;85.80;;;34.10;;
77449;SDS011;66536;53.150;18.172;2024-02-26T02:01:34;70.40;;;30.90;;
77449;SDS011;66536;53.150;18.172;2024-02-26T02:04:03;72.40;;;31.00;;
77449;SDS011;66536;53.150;18.172;2024-02-26T02:06:30;96.40;;;40.00;;
77449;SDS011;66536;53.150;18.172;2024-02-26T02:09:01;98.70;;;39.70;;
77449;SDS011;66536;53.150;18.172;2024-02-26T02:11:32;97.50;;;39.30;;
77449;SDS011;66536;53.150;18.172;2024-02-26T02:13:59;100.70;;;39.10;;
77449;SDS011;66536;53.150;18.172;2024-02-26T02:16:25;93.60;;;37.60;;
77449;SDS011;66536;53.150;18.172;2024-02-26T02:18:52;87.90;;;35.90;;
77449;SDS011;66536;53.150;18.172;2024-02-26T02:21:18;87.30;;;35.60;;
77449;SDS011;66536;53.150;18.172;2024-02-26T02:23:44;84.00;;;35.50;;
77449;SDS011;66536;53.150;18.172;2024-02-26T02:26:13;92.10;;;37.30;;
77449;SDS011;66536;53.150;18.172;2024-02-26T02:28:40;82.40;;;34.30;;
77449;SDS011;66536;53.150;18.172;2024-02-26T02:31:07;66.30;;;27.20;;
77449;SDS011;66536;53.150;18.172;2024-02-26T02:33:35;59.90;;;26.10;;
77449;SDS011;66536;53.150;18.172;2024-02-26T02:36:02;60.40;;;25.50;;
77449;SDS011;66536;53.150;18.172;2024-02-26T02:38:29;56.30;;;24.20;;
77449;SDS011;66536;53.150;18.172;2024-02-26T02:40:56;67.40;;;24.90;;
77449;SDS011;66536;53.150;18.172;2024-02-26T02:43:23;65.20;;;25.90;;
77449;SDS011;66536;53.150;18.172;2024-02-26T02:45:49;70.40;;;25.00;;
77449;SDS011;66536;53.150;18.172;2024-02-26T02:48:16;83.90;;;24.50;;
77449;SDS011;66536;53.150;18.172;2024-02-26T02:50:44;75.00;;;25.00;;
77449;SDS011;66536;53.150;18.172;2024-02-26T02:53:13;72.50;;;25.70;;
77449;SDS011;66536;53.150;18.172;2024-02-26T02:55:39;73.20;;;26.30;;
77449;SDS011;66536;53.150;18.172;2024-02-26T02:58:06;62.70;;;24.40;;
77449;SDS011;66536;53.150;18.172;2024-02-26T03:00:32;64.90;;;24.90;;
77449;SDS011;66536;53.150;18.172;2024-02-26T03:03:03;57.30;;;23.50;;
77449;SDS011;66536;53.150;18.172;2024-02-26T03:05:31;57.60;;;24.70;;
77449;SDS011;66536;53.150;18.172;2024-02-26T03:07:57;64.20;;;26.90;;
77449;SDS011;66536;53.150;18.172;2024-02-26T03:10:26;74.30;;;28.40;;
77449;SDS011;66536;53.150;18.172;2024-02-26T03:12:55;67.30;;;27.00;;
77449;SDS011;66536;53.150;18.172;2024-02-26T03:15:25;66.90;;;26.10;;
77449;SDS011;66536;53.150;18.172;2024-02-26T03:17:52;60.30;;;25.30;;
77449;SDS011;66536;53.150;18.172;2024-02-26T03:20:20;66.30;;;25.80;;
77449;SDS011;66536;53.150;18.172;2024-02-26T03:22:46;62.40;;;25.10;;
77449;SDS011;66536;53.150;18.172;2024-02-26T03:25:15;62.00;;;25.20;;
77449;SDS011;66536;53.150;18.172;2024-02-26T03:27:44;76.50;;;27.20;;
77449;SDS011;66536;53.150;18.172;2024-02-26T03:30:10;60.20;;;25.70;;
77449;SDS011;66536;53.150;18.172;2024-02-26T03:32:37;66.40;;;26.00;;
77449;SDS011;66536;53.150;18.172;2024-02-26T03:35:04;53.40;;;21.30;;
77449;SDS011;66536;53.150;18.172;2024-02-26T03:37:30;52.00;;;19.20;;
77449;SDS011;66536;53.150;18.172;2024-02-26T03:39:56;57.80;;;20.60;;
77449;SDS011;66536;53.150;18.172;2024-02-26T03:42:23;55.90;;;19.00;;
77449;SDS011;66536;53.150;18.172;2024-02-26T03:44:50;69.70;;;20.10;;
77449;SDS011;66536;53.150;18.172;2024-02-26T03:47:19;65.90;;;19.70;;
77449;SDS011;66536;53.150;18.172;2024-02-26T03:49:45;80.80;;;21.50;;
77449;SDS011;66536;53.150;18.172;2024-02-26T03:52:11;75.40;;;25.60;;
77449;SDS011;66536;53.150;18.172;2024-02-26T03:54:37;89.20;;;28.20;;
77449;SDS011;66536;53.150;18.172;2024-02-26T03:57:04;99.70;;;28.80;;
77449;SDS011;66536;53.150;18.172;2024-02-26T03:59:31;91.10;;;33.60;;
77449;SDS011;66536;53.150;18.172;2024-02-26T04:02:00;97.80;;;29.50;;
77449;SDS011;66536;53.150;18.172;2024-02-26T04:04:29;90.40;;;26.40;;
77449;SDS011;66536;53.150;18.172;2024-02-26T04:06:55;91.60;;;24.40;;
77449;SDS011;66536;53.150;18.172;2024-02-26T04:09:21;92.70;;;23.00;;
77449;SDS011;66536;53.150;18.172;2024-02-26T04:11:50;110.20;;;22.70;;
77449;SDS011;66536;53.150;18.172;2024-02-26T04:14:20;83.60;;;22.80;;
77449;SDS011;66536;53.150;18.172;2024-02-26T04:16:47;110.20;;;22.60;;
77449;SDS011;66536;53.150;18.172;2024-02-26T04:19:17;65.90;;;22.80;;
77449;SDS011;66536;53.150;18.172;2024-02-26T04:21:44;94.30;;;21.60;;
77449;SDS011;66536;53.150;18.172;2024-02-26T04:24:12;76.50;;;21.20;;
77449;SDS011;66536;53.150;18.172;2024-02-26T04:26:40;88.20;;;23.60;;
77449;SDS011;66536;53.150;18.172;2024-02-26T04:29:07;84.00;;;23.70;;
77449;SDS011;66536;53.150;18.172;2024-02-26T04:31:33;73.30;;;24.30;;
77449;SDS011;66536;53.150;18.172;2024-02-26T04:33:59;68.60;;;22.50;;
77449;SDS011;66536;53.150;18.172;2024-02-26T04:36:30;65.60;;;22.80;;
77449;SDS011;66536;53.150;18.172;2024-02-26T04:38:58;68.50;;;23.90;;
77449;SDS011;66536;53.150;18.172;2024-02-26T04:41:30;65.10;;;24.90;;
77449;SDS011;66536;53.150;18.172;2024-02-26T04:43:59;58.90;;;22.40;;
77449;SDS011;66536;53.150;18.172;2024-02-26T04:46:28;77.30;;;29.80;;
77449;SDS011;66536;53.150;18.172;2024-02-26T04:48:54;83.10;;;26.30;;
77449;SDS011;66536;53.150;18.172;2024-02-26T04:52:40;63.50;;;22.00;;
77449;SDS011;66536;53.150;18.172;2024-02-26T04:56:16;91.50;;;27.30;;
77449;SDS011;66536;53.150;18.172;2024-02-26T04:59:28;76.00;;;24.20;;
77449;SDS011;66536;53.150;18.172;2024-02-26T05:02:07;71.40;;;21.70;;
77449;SDS011;66536;53.150;18.172;2024-02-26T05:04:43;73.80;;;22.80;;
77449;SDS011;66536;53.150;18.172;2024-02-26T05:07:40;66.40;;;21.50;;
77449;SDS011;66536;53.150;18.172;2024-02-26T05:10:13;80.10;;;20.60;;
77449;SDS011;66536;53.150;18.172;2024-02-26T05:13:34;74.20;;;23.00;;
77449;SDS011;66536;53.150;18.172;2024-02-26T05:16:36;76.20;;;23.90;;
77449;SDS011;66536;53.150;18.172;2024-02-26T05:19:05;83.20;;;26.10;;
77449;SDS011;66536;53.150;18.172;2024-02-26T05:21:37;83.00;;;27.10;;
77449;SDS011;66536;53.150;18.172;2024-02-26T05:24:13;86.40;;;25.30;;
77449;SDS011;66536;53.150;18.172;2024-02-26T05:27:21;67.00;;;22.20;;
77449;SDS011;66536;53.150;18.172;2024-02-26T05:30:21;98.20;;;25.10;;
77449;SDS011;66536;53.150;18.172;2024-02-26T05:33:12;96.10;;;23.30;;
77449;SDS011;66536;53.150;18.172;2024-02-26T05:36:27;78.50;;;20.60;;
77449;SDS011;66536;53.150;18.172;2024-02-26T05:38:59;76.20;;;22.00;;
77449;SDS011;66536;53.150;18.172;2024-02-26T05:41:26;104.90;;;23.50;;
77449;SDS011;66536;53.150;18.172;2024-02-26T05:43:52;115.20;;;33.20;;
77449;SDS011;66536;53.150;18.172;2024-02-26T05:46:19;93.90;;;23.90;;
77449;SDS011;66536;53.150;18.172;2024-02-26T05:48:46;73.80;;;22.30;;
77449;SDS011;66536;53.150;18.172;2024-02-26T05:51:14;92.30;;;21.90;;
77449;SDS011;66536;53.150;18.172;2024-02-26T05:53:41;129.00;;;27.50;;
77449;SDS011;66536;53.150;18.172;2024-02-26T05:56:07;150.40;;;28.00;;
77449;SDS011;66536;53.150;18.172;2024-02-26T05:58:34;103.90;;;23.60;;
77449;SDS011;66536;53.150;18.172;2024-02-26T06:01:00;114.70;;;21.70;;
77449;SDS011;66536;53.150;18.172;2024-02-26T06:03:26;158.20;;;37.50;;
77449;SDS011;66536;53.150;18.172;2024-02-26T06:05:53;124.70;;;28.90;;
77449;SDS011;66536;53.150;18.172;2024-02-26T06:08:19;136.70;;;27.70;;
77449;SDS011;66536;53.150;18.172;2024-02-26T06:10:47;130.00;;;27.70;;
77449;SDS011;66536;53.150;18.172;2024-02-26T06:13:16;191.40;;;42.70;;
77449;SDS011;66536;53.150;18.172;2024-02-26T06:15:42;122.50;;;29.30;;
77449;SDS011;66536;53.150;18.172;2024-02-26T06:18:09;114.00;;;25.30;;
77449;SDS011;66536;53.150;18.172;2024-02-26T06:20:35;122.00;;;25.00;;
77449;SDS011;66536;53.150;18.172;2024-02-26T06:23:01;124.30;;;24.10;;
77449;SDS011;66536;53.150;18.172;2024-02-26T06:25:28;145.70;;;26.30;;
77449;SDS011;66536;53.150;18.172;2024-02-26T06:27:54;163.20;;;24.60;;
77449;SDS011;66536;53.150;18.172;2024-02-26T06:30:23;133.30;;;24.40;;
77449;SDS011;66536;53.150;18.172;2024-02-26T06:32:50;116.80;;;22.70;;
77449;SDS011;66536;53.150;18.172;2024-02-26T06:35:16;78.70;;;22.50;;
77449;SDS011;66536;53.150;18.172;2024-02-26T06:37:43;117.90;;;26.00;;
77449;SDS011;66536;53.150;18.172;2024-02-26T06:40:09;86.30;;;26.80;;
77449;SDS011;66536;53.150;18.172;2024-02-26T06:42:35;69.50;;;25.50;;
77449;SDS011;66536;53.150;18.172;2024-02-26T06:45:01;86.80;;;25.10;;
77449;SDS011;66536;53.150;18.172;2024-02-26T06:47:29;67.00;;;23.70;;
77449;SDS011;66536;53.150;18.172;2024-02-26T06:49:57;81.30;;;24.70;;
77449;SDS011;66536;53.150;18.172;2024-02-26T06:52:25;96.80;;;25.60;;
77449;SDS011;66536;53.150;18.172;2024-02-26T06:54:52;109.10;;;25.60;;
77449;SDS011;66536;53.150;18.172;2024-02-26T06:57:26;72.30;;;21.50;;
77449;SDS011;66536;53.150;18.172;2024-02-26T06:59:52;81.30;;;22.80;;
77449;SDS011;66536;53.150;18.172;2024-02-26T07:02:19;66.90;;;22.60;;
77449;SDS011;66536;53.150;18.172;2024-02-26T07:04:46;59.70;;;22.10;;
77449;SDS011;66536;53.150;18.172;2024-02-26T07:10:12;55.80;;;21.70;;
77449;SDS011;66536;53.150;18.172;2024-02-26T07:37:18;54.20;;;21.10;;
77449;SDS011;66536;53.150;18.172;2024-02-26T07:39:44;55.80;;;22.10;;
77449;SDS011;66536;53.150;18.172;2024-02-26T07:42:10;52.60;;;19.10;;
77449;SDS011;66536;53.150;18.172;2024-02-26T07:44:37;50.50;;;18.50;;
77449;SDS011;66536;53.150;18.172;2024-02-26T07:47:03;55.80;;;20.00;;
77449;SDS011;66536;53.150;18.172;2024-02-26T07:49:30;73.10;;;22.30;;
77449;SDS011;66536;53.150;18.172;2024-02-26T07:51:56;69.50;;;21.70;;
77449;SDS011;66536;53.150;18.172;2024-02-26T07:54:24;63.80;;;19.80;;
77449;SDS011;66536;53.150;18.172;2024-02-26T07:56:50;49.70;;;20.20;;
77449;SDS011;66536;53.150;18.172;2024-02-26T07:59:17;72.10;;;21.10;;
77449;SDS011;66536;53.150;18.172;2024-02-26T08:01:43;53.00;;;22.50;;
77449;SDS011;66536;53.150;18.172;2024-02-26T08:04:15;70.60;;;19.40;;
77449;SDS011;66536;53.150;18.172;2024-02-26T08:06:42;88.40;;;20.80;;
77449;SDS011;66536;53.150;18.172;2024-02-26T08:09:08;56.40;;;19.70;;
77449;SDS011;66536;53.150;18.172;2024-02-26T08:11:34;56.50;;;19.20;;
77449;SDS011;66536;53.150;18.172;2024-02-26T08:14:01;53.60;;;20.80;;
77449;SDS011;66536;53.150;18.172;2024-02-26T08:16:27;81.40;;;21.10;;
77449;SDS011;66536;53.150;18.172;2024-02-26T08:18:55;64.60;;;19.50;;
77449;SDS011;66536;53.150;18.172;2024-02-26T08:21:21;75.90;;;22.30;;
77449;SDS011;66536;53.150;18.172;2024-02-26T08:23:47;56.80;;;22.30;;
77449;SDS011;66536;53.150;18.172;2024-02-26T08:26:14;72.50;;;20.30;;
77449;SDS011;66536;53.150;18.172;2024-02-26T08:28:40;72.30;;;23.40;;
77449;SDS011;66536;53.150;18.172;2024-02-26T08:31:06;72.10;;;21.80;;
77449;SDS011;66536;53.150;18.172;2024-02-26T08:33:32;54.80;;;24.50;;
77449;SDS011;66536;53.150;18.172;2024-02-26T08:36:03;52.80;;;23.60;;
77449;SDS011;66536;53.150;18.172;2024-02-26T08:38:31;62.50;;;26.70;;
77449;SDS011;66536;53.150;18.172;2024-02-26T08:40:57;70.50;;;28.30;;
77449;SDS011;66536;53.150;18.172;2024-02-26T08:43:23;64.50;;;25.70;;
77449;SDS011;66536;53.150;18.172;2024-02-26T08:45:49;69.60;;;24.90;;
77449;SDS011;66536;53.150;18.172;2024-02-26T08:48:15;63.70;;;25.70;;
77449;SDS011;66536;53.150;18.172;2024-02-26T08:50:43;57.60;;;24.60;;
77449;SDS011;66536;53.150;18.172;2024-02-26T08:53:09;71.50;;;25.30;;
77449;SDS011;66536;53.150;18.172;2024-02-26T08:55:36;60.00;;;25.70;;
77449;SDS011;66536;53.150;18.172;2024-02-26T08:58:02;132.00;;;58.90;;
77449;SDS011;66536;53.150;18.172;2024-02-26T09:00:28;52.70;;;24.10;;
77449;SDS011;66536;53.150;18.172;2024-02-26T09:02:54;47.30;;;24.60;;
77449;SDS011;66536;53.150;18.172;2024-02-26T09:05:20;49.60;;;24.90;;
77449;SDS011;66536;53.150;18.172;2024-02-26T09:07:47;59.60;;;25.20;;
77449;SDS011;66536;53.150;18.172;2024-02-26T09:10:15;55.40;;;24.80;;
77449;SDS011;66536;53.150;18.172;2024-02-26T09:12:41;53.80;;;24.60;;
77449;SDS011;66536;53.150;18.172;2024-02-26T09:15:07;56.20;;;25.80;;
77449;SDS011;66536;53.150;18.172;2024-02-26T09:17:35;56.80;;;23.90;;
77449;SDS011;66536;53.150;18.172;2024-02-26T09:20:02;51.90;;;25.70;;
77449;SDS011;66536;53.150;18.172;2024-02-26T09:22:31;52.70;;;25.60;;
77449;SDS011;66536;53.150;18.172;2024-02-26T09:24:57;54.50;;;27.00;;
77449;SDS011;66536;53.150;18.172;2024-02-26T09:27:24;53.60;;;27.30;;
77449;SDS011;66536;53.150;18.172;2024-02-26T09:29:50;55.00;;;27.00;;
77449;SDS011;66536;53.150;18.172;2024-02-26T09:32:16;61.80;;;28.40;;
77449;SDS011;66536;53.150;18.172;2024-02-26T09:34:43;67.30;;;29.60;;
77449;SDS011;66536;53.150;18.172;2024-02-26T09:37:09;68.40;;;31.00;;
77449;SDS011;66536;53.150;18.172;2024-02-26T09:39:36;68.30;;;32.70;;
77449;SDS011;66536;53.150;18.172;2024-02-26T09:42:03;72.40;;;32.20;;
77449;SDS011;66536;53.150;18.172;2024-02-26T09:44:30;80.10;;;37.10;;
77449;SDS011;66536;53.150;18.172;2024-02-26T09:47:02;73.60;;;35.80;;
77449;SDS011;66536;53.150;18.172;2024-02-26T09:49:28;101.70;;;43.50;;
77449;SDS011;66536;53.150;18.172;2024-02-26T09:51:55;96.00;;;43.30;;
77449;SDS011;66536;53.150;18.172;2024-02-26T09:54:24;91.00;;;41.80;;
77449;SDS011;66536;53.150;18.172;2024-02-26T09:56:54;73.90;;;35.90;;
77449;SDS011;66536;53.150;18.172;2024-02-26T09:59:26;75.40;;;38.20;;
77449;SDS011;66536;53.150;18.172;2024-02-26T10:01:53;139.60;;;52.10;;
77449;SDS011;66536;53.150;18.172;2024-02-26T10:04:20;88.00;;;40.50;;
77449;SDS011;66536;53.150;18.172;2024-02-26T10:06:46;72.70;;;35.90;;
77449;SDS011;66536;53.150;18.172;2024-02-26T10:09:16;78.20;;;37.40;;
77449;SDS011;66536;53.150;18.172;2024-02-26T10:11:43;83.20;;;40.00;;
77449;SDS011;66536;53.150;18.172;2024-02-26T10:14:09;88.20;;;41.80;;
77449;SDS011;66536;53.150;18.172;2024-02-26T10:16:37;106.00;;;45.50;;
77449;SDS011;66536;53.150;18.172;2024-02-26T10:19:05;92.90;;;44.00;;
77449;SDS011;66536;53.150;18.172;2024-02-26T10:21:32;84.70;;;41.50;;
77449;SDS011;66536;53.150;18.172;2024-02-26T10:23:58;103.20;;;45.80;;
77449;SDS011;66536;53.150;18.172;2024-02-26T10:26:25;119.90;;;50.40;;
77449;SDS011;66536;53.150;18.172;2024-02-26T10:28:51;96.90;;;43.80;;
77449;SDS011;66536;53.150;18.172;2024-02-26T10:31:18;99.10;;;45.80;;
77449;SDS011;66536;53.150;18.172;2024-02-26T10:33:44;86.30;;;41.10;;
77449;SDS011;66536;53.150;18.172;2024-02-26T10:36:11;88.60;;;42.20;;
77449;SDS011;66536;53.150;18.172;2024-02-26T10:38:38;84.30;;;41.30;;
77449;SDS011;66536;53.150;18.172;2024-02-26T10:41:05;89.30;;;44.20;;
77449;SDS011;66536;53.150;18.172;2024-02-26T10:43:32;80.70;;;40.80;;
77449;SDS011;66536;53.150;18.172;2024-02-26T10:45:58;100.20;;;49.10;;
77449;SDS011;66536;53.150;18.172;2024-02-26T10:48:24;94.80;;;44.80;;
77449;SDS011;66536;53.150;18.172;2024-02-26T10:50:51;96.30;;;46.20;;
77449;SDS011;66536;53.150;18.172;2024-02-26T10:53:20;86.30;;;44.00;;
77449;SDS011;66536;53.150;18.172;2024-02-26T10:55:48;108.70;;;52.60;;
77449;SDS011;66536;53.150;18.172;2024-02-26T10:58:21;81.40;;;41.50;;
77449;SDS011;66536;53.150;18.172;2024-02-26T11:00:50;80.10;;;39.50;;
77449;SDS011;66536;53.150;18.172;2024-02-26T11:03:18;72.10;;;37.20;;
77449;SDS011;66536;53.150;18.172;2024-02-26T11:05:47;75.00;;;37.70;;
77449;SDS011;66536;53.150;18.172;2024-02-26T11:08:15;70.90;;;37.30;;
77449;SDS011;66536;53.150;18.172;2024-02-26T11:10:44;71.70;;;37.80;;
77449;SDS011;66536;53.150;18.172;2024-02-26T11:13:14;74.80;;;39.70;;
77449;SDS011;66536;53.150;18.172;2024-02-26T11:15:44;64.80;;;34.90;;
77449;SDS011;66536;53.150;18.172;2024-02-26T11:18:14;77.10;;;40.90;;
77449;SDS011;66536;53.150;18.172;2024-02-26T11:20:41;66.20;;;36.50;;
77449;SDS011;66536;53.150;18.172;2024-02-26T11:23:09;74.20;;;37.40;;
77449;SDS011;66536;53.150;18.172;2024-02-26T11:25:35;71.50;;;36.50;;
77449;SDS011;66536;53.150;18.172;2024-02-26T11:28:04;73.20;;;38.20;;
77449;SDS011;66536;53.150;18.172;2024-02-26T11:30:34;68.60;;;36.10;;
77449;SDS011;66536;53.150;18.172;2024-02-26T11:33:06;72.10;;;36.90;;
77449;SDS011;66536;53.150;18.172;2024-02-26T11:35:36;68.70;;;35.80;;
77449;SDS011;66536;53.150;18.172;2024-02-26T11:38:03;71.30;;;37.30;;
77449;SDS011;66536;53.150;18.172;2024-02-26T11:40:32;70.50;;;37.00;;
77449;SDS011;66536;53.150;18.172;2024-02-26T11:42:59;76.50;;;37.80;;
77449;SDS011;66536;53.150;18.172;2024-02-26T11:45:57;68.10;;;36.80;;
77449;SDS011;66536;53.150;18.172;2024-02-26T11:48:15;68.00;;;36.80;;
77449;SDS011;66536;53.150;18.172;2024-02-26T11:50:47;66.40;;;35.10;;
77449;SDS011;66536;53.150;18.172;2024-02-26T11:53:22;65.20;;;35.10;;
77449;SDS011;66536;53.150;18.172;2024-02-26T11:58:39;64.00;;;34.10;;
77449;SDS011;66536;53.150;18.172;2024-02-26T12:01:35;66.60;;;35.70;;
77449;SDS011;66536;53.150;18.172;2024-02-26T12:04:04;61.80;;;32.90;;
77449;SDS011;66536;53.150;18.172;2024-02-26T12:06:39;62.10;;;32.40;;
77449;SDS011;66536;53.150;18.172;2024-02-26T12:09:08;63.20;;;32.30;;
77449;SDS011;66536;53.150;18.172;2024-02-26T12:11:38;53.00;;;31.00;;
77449;SDS011;66536;53.150;18.172;2024-02-26T12:14:07;58.60;;;31.10;;
77449;SDS011;66536;53.150;18.172;2024-02-26T12:16:35;61.40;;;31.50;;
77449;SDS011;66536;53.150;18.172;2024-02-26T12:19:04;59.50;;;30.80;;
77449;SDS011;66536;53.150;18.172;2024-02-26T12:21:33;55.00;;;30.10;;
77449;SDS011;66536;53.150;18.172;2024-02-26T12:24:10;53.20;;;29.30;;
77449;SDS011;66536;53.150;18.172;2024-02-26T12:26:38;46.80;;;26.40;;
77449;SDS011;66536;53.150;18.172;2024-02-26T12:29:06;56.50;;;29.90;;
77449;SDS011;66536;53.150;18.172;2024-02-26T12:31:33;56.10;;;30.80;;
77449;SDS011;66536;53.150;18.172;2024-02-26T12:34:00;47.40;;;25.70;;
77449;SDS011;66536;53.150;18.172;2024-02-26T12:36:26;45.20;;;26.60;;
77449;SDS011;66536;53.150;18.172;2024-02-26T12:38:53;45.90;;;26.40;;
77449;SDS011;66536;53.150;18.172;2024-02-26T12:41:20;55.10;;;30.40;;
77449;SDS011;66536;53.150;18.172;2024-02-26T12:43:47;49.70;;;26.50;;
77449;SDS011;66536;53.150;18.172;2024-02-26T12:46:13;41.60;;;24.10;;
77449;SDS011;66536;53.150;18.172;2024-02-26T12:48:43;39.40;;;23.20;;
77449;SDS011;66536;53.150;18.172;2024-02-26T12:51:11;43.90;;;23.70;;
77449;SDS011;66536;53.150;18.172;2024-02-26T12:53:40;43.40;;;23.90;;
77449;SDS011;66536;53.150;18.172;2024-02-26T12:56:07;45.50;;;25.00;;
77449;SDS011;66536;53.150;18.172;2024-02-26T12:58:36;37.00;;;22.60;;
77449;SDS011;66536;53.150;18.172;2024-02-26T13:01:05;41.90;;;23.00;;
77449;SDS011;66536;53.150;18.172;2024-02-26T13:03:34;41.60;;;22.60;;
77449;SDS011;66536;53.150;18.172;2024-02-26T13:06:01;40.10;;;20.90;;
77449;SDS011;66536;53.150;18.172;2024-02-26T13:08:28;32.50;;;19.60;;
77449;SDS011;66536;53.150;18.172;2024-02-26T13:10:54;36.70;;;21.00;;
77449;SDS011;66536;53.150;18.172;2024-02-26T13:13:20;33.40;;;20.70;;
77449;SDS011;66536;53.150;18.172;2024-02-26T13:15:48;35.60;;;19.50;;
77449;SDS011;66536;53.150;18.172;2024-02-26T13:18:14;42.20;;;21.40;;
77449;SDS011;66536;53.150;18.172;2024-02-26T13:20:42;30.50;;;17.50;;
77449;SDS011;66536;53.150;18.172;2024-02-26T13:23:12;32.90;;;20.00;;
77449;SDS011;66536;53.150;18.172;2024-02-26T13:25:39;32.70;;;18.60;;
77449;SDS011;66536;53.150;18.172;2024-02-26T13:28:13;30.80;;;18.30;;
77449;SDS011;66536;53.150;18.172;2024-02-26T13:30:41;35.60;;;20.70;;
77449;SDS011;66536;53.150;18.172;2024-02-26T13:33:16;33.50;;;19.30;;
77449;SDS011;66536;53.150;18.172;2024-02-26T13:35:42;34.60;;;20.30;;
77449;SDS011;66536;53.150;18.172;2024-02-26T13:38:09;33.20;;;19.80;;
77449;SDS011;66536;53.150;18.172;2024-02-26T13:40:46;33.40;;;20.90;;
77449;SDS011;66536;53.150;18.172;2024-02-26T13:43:12;33.60;;;19.20;;
77449;SDS011;66536;53.150;18.172;2024-02-26T13:45:38;32.20;;;17.80;;
77449;SDS011;66536;53.150;18.172;2024-02-26T13:48:06;30.00;;;16.70;;
77449;SDS011;66536;53.150;18.172;2024-02-26T13:50:33;30.30;;;14.80;;
77449;SDS011;66536;53.150;18.172;2024-02-26T13:52:59;29.60;;;15.90;;
77449;SDS011;66536;53.150;18.172;2024-02-26T13:55:26;26.50;;;16.00;;
77449;SDS011;66536;53.150;18.172;2024-02-26T13:57:54;26.90;;;16.80;;
77449;SDS011;66536;53.150;18.172;2024-02-26T14:00:20;28.80;;;16.30;;
77449;SDS011;66536;53.150;18.172;2024-02-26T14:02:48;27.20;;;15.60;;
77449;SDS011;66536;53.150;18.172;2024-02-26T14:05:14;26.10;;;13.90;;
77449;SDS011;66536;53.150;18.172;2024-02-26T14:07:42;24.50;;;14.60;;
77449;SDS011;66536;53.150;18.172;2024-02-26T14:10:08;23.30;;;12.10;;
77449;SDS011;66536;53.150;18.172;2024-02-26T14:12:38;24.80;;;11.90;;
77449;SDS011;66536;53.150;18.172;2024-02-26T14:15:06;20.70;;;11.20;;
77449;SDS011;66536;53.150;18.172;2024-02-26T14:17:33;20.10;;;11.40;;
77449;SDS011;66536;53.150;18.172;2024-02-26T14:19:59;37.00;;;21.30;;
77449;SDS011;66536;53.150;18.172;2024-02-26T14:22:26;20.80;;;12.60;;
77449;SDS011;66536;53.150;18.172;2024-02-26T14:24:52;32.00;;;14.10;;
77449;SDS011;66536;53.150;18.172;2024-02-26T14:27:21;24.00;;;13.00;;
77449;SDS011;66536;53.150;18.172;2024-02-26T14:29:48;25.00;;;13.90;;
77449;SDS011;66536;53.150;18.172;2024-02-26T14:32:14;24.80;;;13.40;;
77449;SDS011;66536;53.150;18.172;2024-02-26T14:34:41;22.70;;;13.50;;
77449;SDS011;66536;53.150;18.172;2024-02-26T14:37:07;31.00;;;15.30;;
77449;SDS011;66536;53.150;18.172;2024-02-26T14:39:33;23.20;;;12.80;;
77449;SDS011;66536;53.150;18.172;2024-02-26T14:42:01;25.00;;;12.10;;
77449;SDS011;66536;53.150;18.172;2024-02-26T14:44:27;36.50;;;14.90;;
77449;SDS011;66536;53.150;18.172;2024-02-26T14:46:54;40.30;;;16.20;;
77449;SDS011;66536;53.150;18.172;2024-02-26T14:49:20;33.50;;;14.60;;